Terminal Aerodrome Forecast
Issued by NWS

Home | Current Version | Previous Version | Text Only | Print | Product List | Glossary On
Versions: 1 2 3 4 5 6 7 8 9 10 11 12 13 14 15 16 17 18
000
FTUS45 KRIW 050500
TAFLND
TAF
KLND 050525Z 0506/0606 24010G15KT P6SM SCT100 BKN150
     FM051000 VRB06KT P6SM SCT150
     FM052000 VRB10G20KT P6SM VCTS SCT060CB BKN150
     FM060300 VRB10G15KT P6SM VCSH BKN050=

USA.gov is the U.S. government's official web portal to all federal, state and local government web resources and services.